createdAt,value
2019-05-29T00:00:15.691Z,320.54
2019-05-29T00:01:19.799Z,320.06
2019-05-29T00:02:16.683Z,319.17
2019-05-29T00:03:15.660Z,319.29
2019-05-29T00:04:15.645Z,318.94
2019-05-29T00:05:15.644Z,316.48
2019-05-29T00:06:15.644Z,318.72
2019-05-29T00:07:15.613Z,319.55
2019-05-29T00:08:15.611Z,320.64
2019-05-29T00:09:15.594Z,320.85
2019-05-29T00:10:15.574Z,321.87
2019-05-29T00:11:15.587Z,320.94
2019-05-29T00:12:19.568Z,320.34
2019-05-29T00:13:16.562Z,319.78
2019-05-29T00:14:22.603Z,320.78
2019-05-29T00:15:16.528Z,321.07
2019-05-29T00:16:15.541Z,320.66
2019-05-29T00:17:15.511Z,315.75
2019-05-29T00:18:15.487Z,314.42
2019-05-29T00:19:15.491Z,320.66
2019-05-29T00:20:15.467Z,315.25
2019-05-29T00:21:15.479Z,314.56
2019-05-29T00:22:15.443Z,314.06
2019-05-29T00:23:15.447Z,321.13
2019-05-29T00:24:15.436Z,314.62
2019-05-29T00:25:16.599Z,314.70
2019-05-29T00:26:16.550Z,315.11
2019-05-29T00:27:15.632Z,315.23
2019-05-29T00:28:15.384Z,320.43
2019-05-29T00:29:15.382Z,319.87
2019-05-29T00:30:15.359Z,314.43
2019-05-29T00:31:15.371Z,318.87
2019-05-29T00:32:15.331Z,312.39
2019-05-29T00:33:15.319Z,314.67
2019-05-29T00:34:15.319Z,309.25
2019-05-29T00:35:16.377Z,315.39
2019-05-29T00:36:16.438Z,315.13
2019-05-29T00:37:15.602Z,315.66
2019-05-29T00:38:15.261Z,310.91
2019-05-29T00:39:15.246Z,317.87
2019-05-29T00:40:15.261Z,312.89
2019-05-29T00:41:15.267Z,314.03
2019-05-29T00:42:16.006Z,314.35
2019-05-29T00:43:15.541Z,319.95
2019-05-29T00:44:15.445Z,314.29
2019-05-29T00:45:15.629Z,313.94
2019-05-29T00:46:15.579Z,313.91
2019-05-29T00:47:15.682Z,315.54
2019-05-29T00:48:16.034Z,314.72
2019-05-29T00:49:15.998Z,315.69
2019-05-29T00:50:16.134Z,312.30
2019-05-29T00:51:15.173Z,318.82
2019-05-29T00:52:16.516Z,312.24
2019-05-29T00:53:16.287Z,311.34
2019-05-29T00:54:15.097Z,311.31
2019-05-29T00:55:15.072Z,316.25
2019-05-29T00:56:15.057Z,311.20
2019-05-29T00:57:15.348Z,309.87
2019-05-29T00:58:15.047Z,310.40
2019-05-29T00:59:15.143Z,315.10
2019-05-29T01:00:15.253Z,309.46
2019-05-29T01:01:15.488Z,310.18
2019-05-29T01:02:15.897Z,308.54
2019-05-29T01:03:15.874Z,315.03
2019-05-29T01:04:15.732Z,314.49
2019-05-29T01:05:16.142Z,316.27
2019-05-29T01:06:15.995Z,316.61
2019-05-29T01:07:16.062Z,314.75
2019-05-29T01:08:14.944Z,313.70
2019-05-29T01:09:14.931Z,316.43
2019-05-29T01:10:14.913Z,311.32
2019-05-29T01:11:14.925Z,310.34
2019-05-29T01:12:14.925Z,311.76
2019-05-29T01:13:15.173Z,309.06
2019-05-29T01:14:15.125Z,316.91
2019-05-29T01:15:15.437Z,309.75
2019-05-29T01:16:15.381Z,310.16
2019-05-29T01:17:15.568Z,308.99
2019-05-29T01:18:15.767Z,309.25
2019-05-29T01:19:15.911Z,310.33
2019-05-29T01:20:15.899Z,309.51
2019-05-29T01:21:15.888Z,316.40
2019-05-29T01:22:14.792Z,311.48
2019-05-29T01:23:14.772Z,316.46
2019-05-29T01:24:14.758Z,312.35
2019-05-29T01:25:14.739Z,312.69
2019-05-29T01:26:14.735Z,313.54
2019-05-29T01:27:15.176Z,318.92
2019-05-29T01:28:14.741Z,312.25
2019-05-29T01:29:14.954Z,318.26
2019-05-29T01:30:15.102Z,312.49
2019-05-29T01:31:15.193Z,316.52
2019-05-29T01:32:15.512Z,316.09
2019-05-29T01:33:18.568Z,317.51
2019-05-29T01:34:15.708Z,312.45
2019-05-29T01:35:15.718Z,312.27
2019-05-29T01:36:15.862Z,318.09
2019-05-29T01:37:14.701Z,317.24
2019-05-29T01:38:15.173Z,317.78
2019-05-29T01:39:15.113Z,316.99
2019-05-29T01:40:21.165Z,309.95
2019-05-29T01:41:15.562Z,311.97
2019-05-29T01:42:15.200Z,312.64
2019-05-29T01:43:15.324Z,313.70
2019-05-29T01:44:15.325Z,313.34
2019-05-29T01:45:15.411Z,313.96
2019-05-29T01:46:15.210Z,313.45
2019-05-29T01:47:15.353Z,311.42
2019-05-29T01:48:15.396Z,311.00
2019-05-29T01:49:16.063Z,312.79
2019-05-29T01:50:15.564Z,313.45
2019-05-29T01:51:15.432Z,317.48
2019-05-29T01:52:15.499Z,311.56
2019-05-29T01:53:15.496Z,317.15
2019-05-29T01:54:15.476Z,312.44
2019-05-29T01:55:15.620Z,311.91
2019-05-29T01:56:15.478Z,313.15
2019-05-29T01:57:15.679Z,318.84
2019-05-29T01:58:15.556Z,313.00
2019-05-29T01:59:15.621Z,317.53
2019-05-29T02:00:15.659Z,313.00
2019-05-29T02:01:15.756Z,318.36
2019-05-29T02:02:15.681Z,313.83
2019-05-29T02:03:15.668Z,319.51
2019-05-29T02:04:15.739Z,310.60
2019-05-29T02:05:14.288Z,315.39
2019-05-29T02:06:14.299Z,317.70
2019-05-29T02:07:14.315Z,313.65
2019-05-29T02:08:14.272Z,314.85
2019-05-29T02:09:14.252Z,315.83
2019-05-29T02:10:14.272Z,309.73
2019-05-29T02:11:14.991Z,309.22
2019-05-29T02:12:14.237Z,312.47
2019-05-29T02:13:15.179Z,310.81
2019-05-29T02:14:14.204Z,310.59
2019-05-29T02:15:24.844Z,313.24
2019-05-29T02:16:16.395Z,310.24
2019-05-29T02:17:15.493Z,308.29
2019-05-29T02:18:14.147Z,307.04
2019-05-29T02:19:14.167Z,312.95
2019-05-29T02:20:14.124Z,306.12
2019-05-29T02:21:14.129Z,305.68
2019-05-29T02:22:14.107Z,305.92
2019-05-29T02:23:14.141Z,305.40
2019-05-29T02:24:14.088Z,305.90
2019-05-29T02:25:16.413Z,312.12
2019-05-29T02:26:14.066Z,306.42
2019-05-29T02:27:14.067Z,307.21
2019-05-29T02:28:14.089Z,314.44
2019-05-29T02:29:14.056Z,316.98
2019-05-29T02:30:14.028Z,310.77
2019-05-29T02:31:14.006Z,310.81
2019-05-29T02:32:13.999Z,308.63
2019-05-29T02:33:14.012Z,310.11
2019-05-29T02:34:13.980Z,315.57
2019-05-29T02:35:13.966Z,312.02
2019-05-29T02:36:13.956Z,318.45
2019-05-29T02:37:13.944Z,317.86
2019-05-29T02:38:13.958Z,318.31
2019-05-29T02:39:13.931Z,312.70
2019-05-29T02:40:13.918Z,318.95
2019-05-29T02:41:13.907Z,313.20
2019-05-29T02:42:13.887Z,311.13
2019-05-29T02:43:13.961Z,311.77
2019-05-29T02:44:13.866Z,313.92
2019-05-29T02:45:13.863Z,312.20
2019-05-29T02:46:13.854Z,311.41
2019-05-29T02:47:13.843Z,313.27
2019-05-29T02:48:13.848Z,317.87
2019-05-29T02:49:13.823Z,312.68
2019-05-29T02:50:13.804Z,313.16
2019-05-29T02:51:13.811Z,314.47
2019-05-29T02:52:13.794Z,320.02
2019-05-29T02:53:13.800Z,310.57
2019-05-29T02:54:13.757Z,311.93
2019-05-29T02:55:13.744Z,310.40
2019-05-29T02:56:13.738Z,317.21
2019-05-29T02:57:13.741Z,310.54
2019-05-29T02:58:13.735Z,307.60
2019-05-29T02:59:13.695Z,308.39
2019-05-29T03:00:13.696Z,317.40
2019-05-29T03:01:13.709Z,309.50
2019-05-29T03:02:13.662Z,315.69
2019-05-29T03:03:13.685Z,317.68
2019-05-29T03:04:13.648Z,317.65
2019-05-29T03:05:13.631Z,311.82
2019-05-29T03:06:13.644Z,317.18
2019-05-29T03:07:13.615Z,310.25
2019-05-29T03:08:13.623Z,317.70
2019-05-29T03:09:13.590Z,312.80
2019-05-29T03:10:13.645Z,318.59
2019-05-29T03:11:13.568Z,313.09
2019-05-29T03:12:13.570Z,312.78
2019-05-29T03:13:13.555Z,309.67
2019-05-29T03:14:13.542Z,310.64
2019-05-29T03:15:13.525Z,311.82
2019-05-29T03:16:13.534Z,318.67
2019-05-29T03:17:13.501Z,312.76
2019-05-29T03:18:13.508Z,312.62
2019-05-29T03:19:13.491Z,312.74
2019-05-29T03:20:13.465Z,313.24
2019-05-29T03:21:13.465Z,318.05
2019-05-29T03:22:13.455Z,317.19
2019-05-29T03:23:13.447Z,312.99
2019-05-29T03:24:13.421Z,313.42
2019-05-29T03:25:13.420Z,311.29
2019-05-29T03:26:13.400Z,311.19
2019-05-29T03:27:13.405Z,314.62
2019-05-29T03:28:13.406Z,319.58
2019-05-29T03:29:13.372Z,319.27
2019-05-29T03:30:13.350Z,319.20
2019-05-29T03:31:13.352Z,312.88
2019-05-29T03:32:14.631Z,318.78
2019-05-29T03:33:13.329Z,319.11
2019-05-29T03:34:13.333Z,318.52
2019-05-29T03:35:13.304Z,317.72
2019-05-29T03:36:13.297Z,317.68
2019-05-29T03:37:13.276Z,311.63
2019-05-29T03:38:13.264Z,317.24
2019-05-29T03:39:13.279Z,311.13
2019-05-29T03:40:13.257Z,315.62
2019-05-29T03:41:13.240Z,311.24
2019-05-29T03:42:13.251Z,317.42
2019-05-29T03:43:13.210Z,310.40
2019-05-29T03:44:13.228Z,311.74
2019-05-29T03:45:13.198Z,313.10
2019-05-29T03:46:30.169Z,321.07
2019-05-29T03:47:14.171Z,312.56
2019-05-29T03:48:13.151Z,317.85
2019-05-29T03:49:13.169Z,312.24
2019-05-29T03:50:15.645Z,319.85
2019-05-29T03:51:13.129Z,313.02
2019-05-29T03:52:13.122Z,315.33
2019-05-29T03:53:13.094Z,310.81
2019-05-29T03:54:13.135Z,316.68
2019-05-29T03:55:13.076Z,317.05
2019-05-29T03:56:13.081Z,318.84
2019-05-29T03:57:13.055Z,313.91
2019-05-29T03:58:13.045Z,318.21
2019-05-29T03:59:13.054Z,312.89
2019-05-29T04:00:13.041Z,318.56
2019-05-29T04:01:13.026Z,312.66
2019-05-29T04:02:12.999Z,315.53
2019-05-29T04:03:13.014Z,315.89
2019-05-29T04:04:13.002Z,317.84
2019-05-29T04:05:13.960Z,319.44
2019-05-29T04:06:12.969Z,318.74
2019-05-29T04:07:12.961Z,318.45
2019-05-29T04:08:12.935Z,319.16
2019-05-29T04:09:13.023Z,313.03
2019-05-29T04:10:12.936Z,319.48
2019-05-29T04:11:12.904Z,312.19
2019-05-29T04:12:12.887Z,313.38
2019-05-29T04:13:12.877Z,311.90
2019-05-29T04:14:12.905Z,312.30
2019-05-29T04:15:12.856Z,310.33
2019-05-29T04:16:12.856Z,310.98
2019-05-29T04:17:12.854Z,317.78
2019-05-29T04:18:12.827Z,312.64
2019-05-29T04:19:12.832Z,313.98
2019-05-29T04:20:12.809Z,319.27
2019-05-29T04:21:12.791Z,313.03
2019-05-29T04:22:12.775Z,311.71
2019-05-29T04:23:12.773Z,310.89
2019-05-29T04:24:12.789Z,319.31
2019-05-29T04:25:12.771Z,309.31
2019-05-29T04:26:12.733Z,310.45
2019-05-29T04:27:12.728Z,310.37
2019-05-29T04:28:12.724Z,317.26
2019-05-29T04:29:12.718Z,311.04
2019-05-29T04:30:12.749Z,318.53
2019-05-29T04:31:12.682Z,310.55
2019-05-29T04:32:12.693Z,310.55
2019-05-29T04:33:12.658Z,315.80
2019-05-29T04:34:12.648Z,316.26
2019-05-29T04:35:12.660Z,318.49
2019-05-29T04:36:12.656Z,320.35
2019-05-29T04:37:12.638Z,318.76
2019-05-29T04:38:12.599Z,315.57
2019-05-29T04:39:12.604Z,317.33
2019-05-29T04:40:12.623Z,316.10
2019-05-29T04:41:12.599Z,310.73
2019-05-29T04:42:12.566Z,309.30
2019-05-29T04:43:12.538Z,310.85
2019-05-29T04:44:12.535Z,310.13
2019-05-29T04:45:12.566Z,309.56
2019-05-29T04:46:12.525Z,311.16
2019-05-29T04:47:12.846Z,312.21
2019-05-29T04:48:12.493Z,318.03
2019-05-29T04:49:12.489Z,311.52
2019-05-29T04:50:12.491Z,319.11
2019-05-29T04:51:12.451Z,313.20
2019-05-29T04:52:12.503Z,312.26
2019-05-29T04:53:12.446Z,317.12
2019-05-29T04:54:12.428Z,318.22
2019-05-29T04:55:12.547Z,317.25
2019-05-29T04:56:12.423Z,308.10
2019-05-29T04:57:12.420Z,317.09
2019-05-29T04:58:12.379Z,317.69
2019-05-29T04:59:12.395Z,309.22
2019-05-29T05:00:12.381Z,314.67
2019-05-29T05:01:12.353Z,317.42
2019-05-29T05:02:12.346Z,315.61
2019-05-29T05:03:12.327Z,313.95
2019-05-29T05:04:12.312Z,313.87
2019-05-29T05:05:12.320Z,316.13
2019-05-29T05:06:12.295Z,315.99
2019-05-29T05:07:12.294Z,315.48
2019-05-29T05:08:12.265Z,317.29
2019-05-29T05:09:12.255Z,313.56
2019-05-29T05:10:12.272Z,318.75
2019-05-29T05:11:12.239Z,316.40
2019-05-29T05:12:12.220Z,312.34
2019-05-29T05:13:12.212Z,315.43
2019-05-29T05:14:12.209Z,315.83
2019-05-29T05:15:12.208Z,317.47
2019-05-29T05:16:12.187Z,316.90
2019-05-29T05:17:25.379Z,311.70
2019-05-29T05:18:13.151Z,316.87
2019-05-29T05:19:12.162Z,314.46
2019-05-29T05:20:12.159Z,313.99
2019-05-29T05:21:12.119Z,315.80
2019-05-29T05:22:12.116Z,308.50
2019-05-29T05:23:12.136Z,307.48
2019-05-29T05:24:12.088Z,313.22
2019-05-29T05:25:12.094Z,312.07
2019-05-29T05:26:12.068Z,311.62
2019-05-29T05:27:12.063Z,314.63
2019-05-29T05:28:12.046Z,313.15
2019-05-29T05:29:12.039Z,315.96
2019-05-29T05:30:12.041Z,313.54
2019-05-29T05:31:12.008Z,307.38
2019-05-29T05:32:12.002Z,312.93
2019-05-29T05:33:12.012Z,309.53
2019-05-29T05:34:11.980Z,318.25
2019-05-29T05:35:14.313Z,315.19
2019-05-29T05:36:11.978Z,313.19
2019-05-29T05:37:11.938Z,311.44
2019-05-29T05:38:11.942Z,313.21
2019-05-29T05:39:11.932Z,312.60
2019-05-29T05:40:11.939Z,313.58
2019-05-29T05:41:11.930Z,311.62
2019-05-29T05:42:11.893Z,312.75
2019-05-29T05:43:23.613Z,305.89
2019-05-29T05:44:12.872Z,311.13
2019-05-29T05:45:11.864Z,305.28
2019-05-29T05:46:11.885Z,313.65
2019-05-29T05:47:11.835Z,306.75
2019-05-29T05:48:11.817Z,307.71
2019-05-29T05:49:11.807Z,314.91
2019-05-29T05:50:11.800Z,309.72
2019-05-29T05:51:11.807Z,309.40
2019-05-29T05:52:11.791Z,306.23
2019-05-29T05:53:11.772Z,305.02
2019-05-29T05:54:11.766Z,311.03
2019-05-29T05:55:11.756Z,306.94
2019-05-29T05:56:11.923Z,308.89
2019-05-29T05:57:11.733Z,314.53
2019-05-29T05:58:11.717Z,306.80
2019-05-29T05:59:11.700Z,310.02
2019-05-29T06:00:11.688Z,313.14
2019-05-29T06:01:11.700Z,311.19
2019-05-29T06:02:11.669Z,312.52
2019-05-29T06:03:11.658Z,305.14
2019-05-29T06:04:11.644Z,314.33
2019-05-29T06:05:11.637Z,313.30
2019-05-29T06:06:11.640Z,313.29
2019-05-29T06:07:11.650Z,307.20
2019-05-29T06:08:11.607Z,312.20
2019-05-29T06:09:11.587Z,312.29
2019-05-29T06:10:11.582Z,312.48
2019-05-29T06:11:11.583Z,307.22
2019-05-29T06:12:11.555Z,307.39
2019-05-29T06:13:11.545Z,308.64
2019-05-29T06:14:11.545Z,307.72
2019-05-29T06:15:11.522Z,305.98
2019-05-29T06:16:11.530Z,306.26
2019-05-29T06:17:11.504Z,308.94
2019-05-29T06:18:21.301Z,310.01
2019-05-29T06:19:12.465Z,309.98
2019-05-29T06:20:11.474Z,304.80
2019-05-29T06:21:11.477Z,310.54
2019-05-29T06:22:11.447Z,308.48
2019-05-29T06:23:11.468Z,302.57
2019-05-29T06:24:11.444Z,309.31
2019-05-29T06:25:11.418Z,302.83
2019-05-29T06:26:11.421Z,302.89
2019-05-29T06:27:11.391Z,302.94
2019-05-29T06:28:11.373Z,302.72
2019-05-29T06:29:11.368Z,303.01
2019-05-29T06:30:11.363Z,308.69
2019-05-29T06:31:11.369Z,309.12
2019-05-29T06:32:11.366Z,308.67
2019-05-29T06:33:11.327Z,308.52
2019-05-29T06:34:11.318Z,308.97
2019-05-29T06:35:11.332Z,308.98
2019-05-29T06:36:11.327Z,309.11
2019-05-29T06:37:11.283Z,309.43
2019-05-29T06:38:11.261Z,309.12
2019-05-29T06:39:11.260Z,309.77
2019-05-29T06:40:11.254Z,311.32
2019-05-29T06:41:11.300Z,310.65
2019-05-29T06:42:11.253Z,310.45
2019-05-29T06:43:11.992Z,303.44
2019-05-29T06:44:11.265Z,304.08
2019-05-29T06:45:11.198Z,305.11
2019-05-29T06:46:11.177Z,305.92
2019-05-29T06:47:11.189Z,309.97
2019-05-29T06:48:11.158Z,304.03
2019-05-29T06:49:11.265Z,303.83
2019-05-29T06:50:11.136Z,309.84
2019-05-29T06:51:11.238Z,308.81
2019-05-29T06:52:11.144Z,308.47
2019-05-29T06:53:11.103Z,309.27
2019-05-29T06:54:11.098Z,309.58
2019-05-29T06:55:11.073Z,309.29
2019-05-29T06:56:11.244Z,307.89
2019-05-29T06:57:11.094Z,308.95
2019-05-29T06:58:11.113Z,309.10
2019-05-29T06:59:11.038Z,309.58
2019-05-29T07:00:11.041Z,310.15
2019-05-29T07:01:11.011Z,305.51
2019-05-29T07:02:11.020Z,312.47
2019-05-29T07:03:10.987Z,307.23
2019-05-29T07:04:12.504Z,311.15
2019-05-29T07:05:10.970Z,309.71
2019-05-29T07:06:10.959Z,312.73
2019-05-29T07:07:10.958Z,311.33
2019-05-29T07:08:19.189Z,308.06
2019-05-29T07:09:11.926Z,303.94
2019-05-29T07:10:10.922Z,307.65
2019-05-29T07:11:10.907Z,309.87
2019-05-29T07:12:10.912Z,309.95
2019-05-29T07:13:10.882Z,303.95
2019-05-29T07:14:10.882Z,303.32
2019-05-29T07:15:10.857Z,304.70
2019-05-29T07:16:10.853Z,304.07
2019-05-29T07:17:10.855Z,310.73
2019-05-29T07:18:10.826Z,311.79
2019-05-29T07:19:45.118Z,310.13
2019-05-29T07:20:11.805Z,313.60
2019-05-29T07:21:10.788Z,310.16
2019-05-29T07:22:10.784Z,312.23
2019-05-29T07:23:10.768Z,311.17
2019-05-29T07:24:10.758Z,311.79
2019-05-29T07:25:10.758Z,309.36
2019-05-29T07:26:10.726Z,309.42
2019-05-29T07:27:13.399Z,311.35
2019-05-29T07:28:10.731Z,309.79
2019-05-29T07:29:10.729Z,306.65
2019-05-29T07:30:10.777Z,308.80
2019-05-29T07:31:10.685Z,302.24
2019-05-29T07:32:10.689Z,308.79
2019-05-29T07:33:10.675Z,308.64
2019-05-29T07:34:10.645Z,307.44
2019-05-29T07:35:10.639Z,308.14
2019-05-29T07:36:10.629Z,308.57
2019-05-29T07:37:10.626Z,309.05
2019-05-29T07:38:10.603Z,308.40
2019-05-29T07:39:10.592Z,309.07
2019-05-29T07:40:10.615Z,309.92
2019-05-29T07:41:10.581Z,308.92
2019-05-29T07:42:10.580Z,309.24
2019-05-29T07:43:10.568Z,309.33
2019-05-29T07:44:10.541Z,309.71
2019-05-29T07:45:10.550Z,309.18
2019-05-29T07:46:10.508Z,309.85
2019-05-29T07:47:10.520Z,309.80
2019-05-29T07:48:10.522Z,309.79
2019-05-29T07:49:10.495Z,309.80
2019-05-29T07:50:10.473Z,308.85
2019-05-29T07:51:10.451Z,309.62
2019-05-29T07:52:10.439Z,309.32
2019-05-29T07:53:10.459Z,309.58
2019-05-29T07:54:10.433Z,310.32
2019-05-29T07:55:10.505Z,312.53
2019-05-29T07:56:22.237Z,312.36
2019-05-29T07:57:11.379Z,313.91
2019-05-29T07:58:10.397Z,314.44
2019-05-29T07:59:10.368Z,314.50
2019-05-29T08:00:10.352Z,313.34
2019-05-29T08:01:13.655Z,315.48
2019-05-29T08:02:10.340Z,314.27
2019-05-29T08:03:10.336Z,310.73
2019-05-29T08:04:10.304Z,312.98
2019-05-29T08:05:10.300Z,311.19
2019-05-29T08:06:10.280Z,309.36
2019-05-29T08:07:10.292Z,309.08
2019-05-29T08:08:10.287Z,309.27
2019-05-29T08:09:10.275Z,310.85
2019-05-29T08:10:10.264Z,311.45
2019-05-29T08:11:10.234Z,308.96
2019-05-29T08:12:10.224Z,309.72
2019-05-29T08:13:10.246Z,312.90
2019-05-29T08:14:10.197Z,313.69
2019-05-29T08:15:10.196Z,312.17
2019-05-29T08:16:10.180Z,310.08
2019-05-29T08:17:10.197Z,312.34
2019-05-29T08:18:10.186Z,315.87
2019-05-29T08:19:10.151Z,314.70
2019-05-29T08:20:10.138Z,312.81
2019-05-29T08:21:10.127Z,309.91
2019-05-29T08:22:10.165Z,310.85
2019-05-29T08:23:10.116Z,311.55
2019-05-29T08:24:10.121Z,311.99
2019-05-29T08:25:10.081Z,309.35
2019-05-29T08:26:10.068Z,307.63
2019-05-29T08:27:10.057Z,308.07
2019-05-29T08:28:10.081Z,307.60
2019-05-29T08:29:10.045Z,308.21
2019-05-29T08:30:10.030Z,308.98
2019-05-29T08:31:10.026Z,308.46
2019-05-29T08:32:10.007Z,308.88
2019-05-29T08:33:10.012Z,308.60
2019-05-29T08:34:09.982Z,307.51
2019-05-29T08:35:09.967Z,309.17
2019-05-29T08:36:09.953Z,308.85
2019-05-29T08:37:10.007Z,310.01
2019-05-29T08:38:09.958Z,310.52
2019-05-29T08:39:09.930Z,310.10
2019-05-29T08:40:09.923Z,312.03
2019-05-29T08:41:09.910Z,312.53
2019-05-29T08:42:22.487Z,310.66
2019-05-29T08:43:10.919Z,310.39
2019-05-29T08:44:09.872Z,314.00
2019-05-29T08:45:09.892Z,313.20
2019-05-29T08:46:09.855Z,312.71
2019-05-29T08:47:10.992Z,310.94
2019-05-29T08:48:09.846Z,311.66
2019-05-29T08:49:09.810Z,311.69
2019-05-29T08:50:18.219Z,312.11
2019-05-29T08:51:11.012Z,314.16
2019-05-29T08:52:12.161Z,313.48
2019-05-29T08:53:09.788Z,313.61
2019-05-29T08:54:23.394Z,310.04
2019-05-29T08:55:13.701Z,309.49
2019-05-29T08:56:09.745Z,311.09
2019-05-29T08:57:09.800Z,310.80
2019-05-29T08:58:09.749Z,308.77
2019-05-29T08:59:09.790Z,309.23
2019-05-29T09:00:09.697Z,311.84
2019-05-29T09:01:09.677Z,311.75
2019-05-29T09:02:09.675Z,308.92
2019-05-29T09:03:09.692Z,309.81
2019-05-29T09:04:09.655Z,307.75
2019-05-29T09:05:09.630Z,309.26
2019-05-29T09:06:13.352Z,309.12
2019-05-29T09:07:09.610Z,307.88
2019-05-29T09:08:09.633Z,307.00
2019-05-29T09:09:09.618Z,306.40
2019-05-29T09:10:09.592Z,308.26
2019-05-29T09:11:09.584Z,307.59
2019-05-29T09:12:09.556Z,308.31
2019-05-29T09:13:09.546Z,308.61
2019-05-29T09:14:09.557Z,306.66
2019-05-29T09:15:09.844Z,308.99
2019-05-29T09:16:09.539Z,307.10
2019-05-29T09:17:09.505Z,308.79
2019-05-29T09:18:09.491Z,308.32
2019-05-29T09:19:09.502Z,308.14
2019-05-29T09:20:27.130Z,308.70
2019-05-29T09:21:10.451Z,307.99
2019-05-29T09:22:09.455Z,309.19
2019-05-29T09:23:09.477Z,307.15
2019-05-29T09:24:09.507Z,307.36
2019-05-29T09:25:09.423Z,309.73
2019-05-29T09:26:16.041Z,309.56
2019-05-29T09:27:10.395Z,310.93
2019-05-29T09:28:09.377Z,308.22
2019-05-29T09:29:09.422Z,307.85
2019-05-29T09:30:09.360Z,307.72
2019-05-29T09:31:09.403Z,308.44
2019-05-29T09:32:09.338Z,307.45
2019-05-29T09:33:09.311Z,308.74
2019-05-29T09:34:09.355Z,307.83
2019-05-29T09:35:09.297Z,308.90
2019-05-29T09:36:09.303Z,308.16
2019-05-29T09:37:09.278Z,307.64
2019-05-29T09:38:09.269Z,308.75
2019-05-29T09:39:09.302Z,308.79
2019-05-29T09:40:09.253Z,308.80
2019-05-29T09:41:09.230Z,309.53
2019-05-29T09:42:09.228Z,308.56
2019-05-29T09:43:09.220Z,307.51
2019-05-29T09:44:09.223Z,308.53
2019-05-29T09:45:09.203Z,307.84
2019-05-29T09:46:09.169Z,309.33
2019-05-29T09:47:09.207Z,307.97
2019-05-29T09:48:09.204Z,308.42
2019-05-29T09:49:09.186Z,308.05
2019-05-29T09:50:09.130Z,307.22
2019-05-29T09:51:20.723Z,308.87
2019-05-29T09:52:10.112Z,307.15
2019-05-29T09:53:09.115Z,309.14
2019-05-29T09:54:09.163Z,309.11
2019-05-29T09:55:09.096Z,309.60
2019-05-29T09:56:09.066Z,308.92
2019-05-29T09:57:09.052Z,309.23
2019-05-29T09:58:09.044Z,308.08
2019-05-29T09:59:09.058Z,309.35
2019-05-29T10:00:09.022Z,309.74
2019-05-29T10:01:21.718Z,308.78
2019-05-29T10:02:09.994Z,311.16
2019-05-29T10:03:08.996Z,310.93
2019-05-29T10:04:09.000Z,309.15
2019-05-29T10:05:08.976Z,310.47
2019-05-29T10:06:09.602Z,310.10
2019-05-29T10:07:08.939Z,309.69
2019-05-29T10:08:08.937Z,309.06
2019-05-29T10:09:08.944Z,310.20
2019-05-29T10:10:08.917Z,308.49
2019-05-29T10:11:10.911Z,306.53
2019-05-29T10:12:08.885Z,308.75
2019-05-29T10:13:08.880Z,308.82
2019-05-29T10:14:08.887Z,308.49
2019-05-29T10:15:08.850Z,308.27
2019-05-29T10:16:08.849Z,308.76
2019-05-29T10:17:12.538Z,306.96
2019-05-29T10:18:30.012Z,311.47
2019-05-29T10:19:09.882Z,311.98
2019-05-29T10:20:08.796Z,311.18
2019-05-29T10:21:08.794Z,309.56
2019-05-29T10:22:08.780Z,310.71
2019-05-29T10:23:08.768Z,307.55
2019-05-29T10:24:08.785Z,310.06
2019-05-29T10:25:08.793Z,307.56
2019-05-29T10:26:08.727Z,309.09
2019-05-29T10:27:08.722Z,309.24
2019-05-29T10:28:08.718Z,309.77
2019-05-29T10:29:09.861Z,307.31
2019-05-29T10:30:08.691Z,307.97
2019-05-29T10:31:08.672Z,307.64
2019-05-29T10:32:08.719Z,309.27
2019-05-29T10:33:08.658Z,308.55
2019-05-29T10:34:08.662Z,308.92
2019-05-29T10:35:08.634Z,310.80
2019-05-29T10:36:08.616Z,310.46
2019-05-29T10:37:08.607Z,307.84
2019-05-29T10:38:08.595Z,306.53
2019-05-29T10:39:08.615Z,309.00
2019-05-29T10:40:08.572Z,308.90
2019-05-29T10:41:08.570Z,309.20
2019-05-29T10:42:08.543Z,309.17
2019-05-29T10:43:08.544Z,309.88
2019-05-29T10:44:12.447Z,308.58
2019-05-29T10:45:08.518Z,311.04
2019-05-29T10:46:08.525Z,307.27
2019-05-29T10:47:08.516Z,307.07
2019-05-29T10:48:08.485Z,308.82
2019-05-29T10:49:08.490Z,308.76
2019-05-29T10:50:08.505Z,310.68
2019-05-29T10:51:08.471Z,307.74
2019-05-29T10:52:16.129Z,310.85
2019-05-29T10:53:09.423Z,311.73
2019-05-29T10:54:08.455Z,307.96
2019-05-29T10:55:08.407Z,310.79
2019-05-29T10:56:08.403Z,310.47
2019-05-29T10:57:08.392Z,310.00
2019-05-29T10:58:08.371Z,307.56
2019-05-29T10:59:08.390Z,306.97
2019-05-29T11:00:08.372Z,309.90
2019-05-29T11:01:08.384Z,309.03
2019-05-29T11:02:08.329Z,307.93
2019-05-29T11:03:08.317Z,309.18
2019-05-29T11:04:08.339Z,308.80
2019-05-29T11:05:08.308Z,310.65
2019-05-29T11:06:08.281Z,311.31
2019-05-29T11:07:08.275Z,309.77
2019-05-29T11:08:08.273Z,308.03
2019-05-29T11:09:08.284Z,306.97
2019-05-29T11:10:08.242Z,308.85
2019-05-29T11:11:08.228Z,308.42
2019-05-29T11:12:08.255Z,307.75
2019-05-29T11:13:08.203Z,308.53
2019-05-29T11:14:08.204Z,309.24
2019-05-29T11:15:20.630Z,309.92
2019-05-29T11:16:09.168Z,308.25
2019-05-29T11:17:08.167Z,310.22
2019-05-29T11:18:08.168Z,310.08
2019-05-29T11:19:08.168Z,309.09
2019-05-29T11:20:08.636Z,309.82
2019-05-29T11:21:08.132Z,305.61
2019-05-29T11:22:25.151Z,305.37
2019-05-29T11:23:09.100Z,308.95
2019-05-29T11:24:08.088Z,307.41
2019-05-29T11:25:21.685Z,308.52
2019-05-29T11:26:09.061Z,309.27
2019-05-29T11:27:08.058Z,307.78
2019-05-29T11:28:08.036Z,309.27
2019-05-29T11:29:08.038Z,308.82
2019-05-29T11:30:08.049Z,307.95
2019-05-29T11:31:08.018Z,307.82
2019-05-29T11:32:08.021Z,308.89
2019-05-29T11:33:08.137Z,306.61
2019-05-29T11:34:07.973Z,310.31
2019-05-29T11:35:08.026Z,310.37
2019-05-29T11:36:12.993Z,308.50
2019-05-29T11:37:08.948Z,309.30
2019-05-29T11:38:07.937Z,307.52
2019-05-29T11:39:07.919Z,307.89
2019-05-29T11:40:07.945Z,308.40
2019-05-29T11:41:25.167Z,309.39
2019-05-29T11:42:08.887Z,307.11
2019-05-29T11:43:07.884Z,309.65
2019-05-29T11:44:07.870Z,308.29
2019-05-29T11:45:07.883Z,309.17
2019-05-29T11:46:07.848Z,307.24
2019-05-29T11:47:07.830Z,308.07
2019-05-29T11:48:07.840Z,311.00
2019-05-29T11:49:07.814Z,311.36
2019-05-29T11:50:18.762Z,309.20
2019-05-29T11:51:08.784Z,308.95
2019-05-29T11:52:23.567Z,308.83
2019-05-29T11:53:08.767Z,310.49
2019-05-29T11:54:07.760Z,304.27
2019-05-29T11:55:08.455Z,305.77
2019-05-29T11:56:07.730Z,307.82
2019-05-29T11:57:07.749Z,307.42
2019-05-29T11:58:07.730Z,309.20
2019-05-29T11:59:07.706Z,307.64
2019-05-29T12:00:19.052Z,306.83
2019-05-29T12:01:08.668Z,308.50
2019-05-29T12:02:07.669Z,308.84
2019-05-29T12:03:07.671Z,309.29
2019-05-29T12:04:24.292Z,306.27
2019-05-29T12:05:08.649Z,307.83
2019-05-29T12:06:07.835Z,306.80
2019-05-29T12:07:07.608Z,308.61
2019-05-29T12:08:07.601Z,308.96
2019-05-29T12:09:07.576Z,305.81
2019-05-29T12:10:07.924Z,309.20
2019-05-29T12:11:07.576Z,306.63
2019-05-29T12:12:07.557Z,310.00
2019-05-29T12:13:07.539Z,308.76
2019-05-29T12:14:07.524Z,307.88
2019-05-29T12:15:13.463Z,307.50
2019-05-29T12:16:08.524Z,309.81
2019-05-29T12:17:07.517Z,307.79
2019-05-29T12:18:22.689Z,309.48
2019-05-29T12:19:08.472Z,310.17
2019-05-29T12:20:26.380Z,312.85
2019-05-29T12:21:08.452Z,310.14
2019-05-29T12:22:07.447Z,309.54
2019-05-29T12:23:22.850Z,308.61
2019-05-29T12:24:08.433Z,309.44
2019-05-29T12:25:07.439Z,308.91
2019-05-29T12:26:21.961Z,307.23
2019-05-29T12:27:08.394Z,307.72
2019-05-29T12:28:07.451Z,310.67